Terminal Aerodrome Forecast
Issued by NWS

Home | Current Version | Previous Version | Text Only | Print | Product List | Glossary On
Versions: 1 2 3 4 5 6 7 8 9 10
238
FTUS46 KPDT 230539
TAFBDN
TAF
KBDN 230539Z 2306/2406 VRB06KT P6SM SCT080
     FM231800 30010KT P6SM BKN070
      TEMPO 2318/2322 -RA BKN050 BKN090
     FM232200 25012G22KT P6SM -RA BKN040 BKN090
     FM240400 25010KT P6SM VCSH BKN050 BKN090=

USA.gov is the U.S. government's official web portal to all federal, state and local government web resources and services.